Time;durP1;ratioP1;P1;durP2;ratioP2;P2;SDS_P1;SDS_P2;PMS_P1;PMS_P2;Temp;Humidity;BMP_temperature;BMP_pressure;BME280_temperature;BME280_humidity;BME280_pressure;Samples;Min_cycle;Max_cycle;Signal;HPM_P1;HPM_P2
2022/06/08 00:02:10;;;;;;;11.70;5.28;;;;;;;-144.07;100.00;58028.97;4825415;29;20049;-76
2022/06/08 00:04:36;;;;;;;13.90;5.25;;;;;;;-144.07;100.00;58028.97;4834680;29;20048;-75
2022/06/08 00:07:02;;;;;;;10.75;5.60;;;;;;;-144.07;100.00;58028.97;4838454;29;20575;-76
2022/06/08 00:09:28;;;;;;;11.75;5.43;;;;;;;-144.07;100.00;58028.97;4822981;29;20036;-75
2022/06/08 00:11:54;;;;;;;8.68;5.13;;;;;;;-144.07;100.00;58028.97;4838654;29;20061;-76
2022/06/08 00:14:19;;;;;;;12.68;5.00;;;;;;;-144.07;100.00;58028.97;4832076;29;20034;-75
2022/06/08 00:16:45;;;;;;;12.93;5.57;;;;;;;-144.07;100.00;58028.97;4839322;29;20049;-74
2022/06/08 00:19:11;;;;;;;10.15;5.80;;;;;;;-144.07;100.00;58028.97;4790059;29;1458844;-75
2022/06/08 00:21:37;;;;;;;12.20;6.13;;;;;;;-144.07;100.00;58028.97;4842375;29;20121;-76
2022/06/08 00:24:02;;;;;;;;;;;;;;;-144.07;100.00;58028.97;4839523;29;20042;-74
2022/06/08 00:26:28;;;;;;;9.73;5.03;;;;;;;-144.07;100.00;58028.97;4840490;29;20437;-76
2022/06/08 00:28:54;;;;;;;12.45;5.30;;;;;;;-144.07;100.00;58028.97;4826904;29;20041;-75
2022/06/08 00:31:20;;;;;;;12.93;5.18;;;;;;;-144.07;100.00;58028.97;4840590;29;20474;-76
2022/06/08 00:33:47;;;;;;;11.45;5.78;;;;;;;-144.07;100.00;58028.97;4827441;29;20041;-75
2022/06/08 00:36:13;;;;;;;10.20;5.53;;;;;;;-144.07;100.00;58028.97;4842113;29;20422;-75
2022/06/08 00:38:39;;;;;;;9.48;5.13;;;;;;;-144.07;100.00;58028.97;4842267;29;20133;-76
2022/06/08 00:41:18;;;;;;;9.82;5.32;;;;;;;-144.07;100.00;58028.97;4842371;29;20806;-78
2022/06/08 00:43:44;;;;;;;10.57;5.25;;;;;;;-144.07;100.00;58028.97;4847443;29;20395;-76
2022/06/08 00:46:10;;;;;;;11.65;5.28;;;;;;;-144.07;100.00;58028.97;4842513;29;20050;-75
2022/06/08 00:48:42;;;;;;;8.70;5.10;;;;;;;-144.07;100.00;58028.97;4826675;29;20137;-76
2022/06/08 00:51:07;;;;;;;13.88;5.45;;;;;;;-144.07;100.00;58028.97;4852406;29;20530;-75
2022/06/08 00:53:46;;;;;;;8.85;5.50;;;;;;;-144.07;100.00;58028.97;4824344;29;20037;-76
2022/06/08 00:56:16;;;;;;;10.93;5.32;;;;;;;-144.07;100.00;58028.97;4848854;29;20083;-75
2022/06/08 00:58:41;;;;;;;10.80;5.45;;;;;;;-144.07;100.00;58028.97;4823498;29;20037;-74
2022/06/08 01:01:07;;;;;;;9.40;5.45;;;;;;;-144.07;100.00;58028.97;4837746;29;20470;-75
2022/06/08 01:03:33;;;;;;;13.25;5.10;;;;;;;-144.07;100.00;58028.97;4829967;29;20122;-74
2022/06/08 01:06:05;;;;;;;9.35;5.80;;;;;;;-144.07;100.00;58028.97;4841210;29;20501;-78
2022/06/08 01:08:59;;;;;;;8.68;4.88;;;;;;;-144.07;100.00;58028.97;4826779;29;20042;-75
2022/06/08 01:11:38;;;;;;;9.73;5.05;;;;;;;-144.07;100.00;58028.97;4842776;29;20494;-75
2022/06/08 01:14:06;;;;;;;12.95;5.45;;;;;;;-144.07;100.00;58028.97;4837926;29;20418;-76
2022/06/08 01:16:32;;;;;;;9.18;5.10;;;;;;;-144.07;100.00;58028.97;4822829;29;20039;-75
2022/06/08 01:19:01;;;;;;;10.40;5.03;;;;;;;-144.07;100.00;58028.97;4834736;29;20072;-75
2022/06/08 01:21:29;;;;;;;11.43;5.15;;;;;;;-144.07;100.00;58028.97;4827268;29;20038;-75
2022/06/08 01:24:04;;;;;;;9.13;5.00;;;;;;;-144.07;100.00;58028.97;4827021;29;20676;-76
2022/06/08 01:26:50;;;;;;;10.52;5.63;;;;;;;-144.07;100.00;58028.97;4841681;29;20049;-75
2022/06/08 01:29:40;;;;;;;9.45;4.85;;;;;;;-144.07;100.00;58028.97;4833656;29;20565;-76
2022/06/08 01:32:18;;;;;;;8.05;4.93;;;;;;;-144.07;100.00;58028.97;4841570;29;20069;-76
2022/06/08 01:35:06;;;;;;;11.38;4.90;;;;;;;-144.07;100.00;58028.97;4841174;29;20041;-76
2022/06/08 01:37:54;;;;;;;11.02;4.80;;;;;;;-144.07;100.00;58028.97;4856113;29;20041;-75
2022/06/08 01:40:40;;;;;;;8.05;5.50;;;;;;;-144.07;100.00;58028.97;4829577;29;20068;-76
2022/06/08 01:43:32;;;;;;;;;;;;;;;-144.07;100.00;58028.97;4825539;29;20512;-75
2022/06/08 01:46:20;;;;;;;13.07;5.00;;;;;;;-144.07;100.00;58028.97;4833571;29;19924;-76
2022/06/08 01:49:14;;;;;;;8.98;5.18;;;;;;;-144.07;100.00;58028.97;4836962;29;20125;-75
2022/06/08 01:51:42;;;;;;;10.40;5.13;;;;;;;-144.07;100.00;58028.97;4852478;29;20053;-75
2022/06/08 01:54:21;;;;;;;12.00;4.97;;;;;;;-144.07;100.00;58028.97;4856025;29;20030;-76
2022/06/08 01:56:51;;;;;;;10.32;4.90;;;;;;;-144.07;100.00;58028.97;4826452;29;20037;-75
2022/06/08 01:59:34;;;;;;;8.23;5.00;;;;;;;-144.07;100.00;58028.97;4835534;29;20125;-75
2022/06/08 02:02:24;;;;;;;9.73;5.18;;;;;;;-144.07;100.00;58028.97;4827042;29;20041;-75
2022/06/08 02:05:07;;;;;;;9.00;5.20;;;;;;;-144.07;100.00;58028.97;4840547;29;20455;-75
2022/06/08 02:07:46;;;;;;;10.88;5.10;;;;;;;-144.07;100.00;58028.97;4827418;29;20056;-76
2022/06/08 02:10:38;;;;;;;11.65;5.32;;;;;;;-144.07;100.00;58028.97;4826050;29;20046;-75
2022/06/08 02:13:30;;;;;;;9.02;5.20;;;;;;;-144.07;100.00;58028.97;4828219;29;20048;-76
2022/06/08 02:16:02;;;;;;;8.50;4.40;;;;;;;-144.07;100.00;58028.97;4812165;29;20046;-75
2022/06/08 02:18:34;;;;;;;10.38;4.93;;;;;;;-144.07;100.00;58028.97;4825738;29;20118;-75
2022/06/08 02:21:11;;;;;;;8.30;4.68;;;;;;;-144.07;100.00;58028.97;4825230;29;20097;-75
2022/06/08 02:23:53;;;;;;;7.68;4.78;;;;;;;-144.07;100.00;58028.97;4828568;29;20052;-76
2022/06/08 02:26:32;;;;;;;9.52;4.15;;;;;;;-144.07;100.00;58028.97;4826407;29;20053;-75
2022/06/08 02:29:07;;;;;;;8.57;4.20;;;;;;;-144.07;100.00;58028.97;4815064;29;20049;-74
2022/06/08 02:31:40;;;;;;;10.93;4.03;;;;;;;-144.07;100.00;58028.97;4835498;29;20532;-75
2022/06/08 02:34:29;;;;;;;5.45;3.80;;;;;;;-144.07;100.00;58028.97;4813881;29;20105;-75
2022/06/08 02:37:06;;;;;;;9.73;4.10;;;;;;;-144.07;100.00;58028.97;4839149;29;20041;-74
2022/06/08 02:39:55;;;;;;;8.32;3.50;;;;;;;-144.07;100.00;58028.97;4841275;29;20045;-74
2022/06/08 02:42:25;;;;;;;7.60;3.97;;;;;;;-144.07;100.00;58028.97;4798832;29;20429;-74
2022/06/08 02:44:53;;;;;;;7.95;3.60;;;;;;;-144.07;100.00;58028.97;4816665;29;20042;-76
2022/06/08 02:47:29;;;;;;;8.90;4.15;;;;;;;-144.07;100.00;58028.97;4824923;29;20045;-76
2022/06/08 02:50:08;;;;;;;9.20;3.80;;;;;;;-144.07;100.00;58028.97;4830969;29;20041;-75
2022/06/08 02:52:36;;;;;;;8.32;4.00;;;;;;;-144.07;100.00;58028.97;4840102;29;20464;-75
2022/06/08 02:55:20;;;;;;;7.60;3.90;;;;;;;-144.07;100.00;58028.97;4824585;29;20094;-74
2022/06/08 02:58:00;;;;;;;9.07;3.88;;;;;;;-144.07;100.00;58028.97;4839815;29;20509;-75
2022/06/08 03:00:31;;;;;;;8.70;3.80;;;;;;;-144.07;100.00;58028.97;4816647;29;20045;-75
2022/06/08 03:03:07;;;;;;;8.20;4.07;;;;;;;-144.07;100.00;58028.97;4826794;29;20088;-76
2022/06/08 03:05:40;;;;;;;11.20;4.60;;;;;;;-144.07;100.00;58028.97;4847783;29;20052;-76
2022/06/08 03:08:22;;;;;;;10.25;4.22;;;;;;;-144.07;100.00;58028.97;4827440;29;20041;-76
2022/06/08 03:10:48;;;;;;;5.82;3.65;;;;;;;-144.07;100.00;58028.97;4832490;29;20052;-74
2022/06/08 03:13:24;;;;;;;9.23;3.58;;;;;;;-144.07;100.00;58028.97;4825889;29;20385;-75
2022/06/08 03:15:54;;;;;;;8.00;4.25;;;;;;;-144.07;100.00;58028.97;4854087;29;20033;-76
2022/06/08 03:18:20;;;;;;;10.68;3.22;;;;;;;-144.07;100.00;58028.97;4825114;29;20065;-74
2022/06/08 03:20:46;;;;;;;8.20;3.53;;;;;;;-144.07;100.00;58028.97;4825166;29;20041;-76
2022/06/08 03:23:12;;;;;;;7.78;3.55;;;;;;;-144.07;100.00;58028.97;4822377;29;20529;-75
2022/06/08 03:25:39;;;;;;;9.40;4.07;;;;;;;-144.07;100.00;58028.97;4816499;29;20048;-84
2022/06/08 03:28:06;;;;;;;11.43;4.28;;;;;;;-144.07;100.00;58028.97;4825598;29;20044;-76
2022/06/08 03:30:32;;;;;;;11.95;4.72;;;;;;;-144.07;100.00;58028.97;4828400;29;20054;-74
2022/06/08 03:33:01;;;;;;;8.45;5.10;;;;;;;-144.07;100.00;58028.97;4836456;29;20044;-74
2022/06/08 03:35:28;;;;;;;14.10;5.45;;;;;;;-144.07;100.00;58028.97;4841333;29;20379;-74
2022/06/08 03:37:54;;;;;;;7.05;4.00;;;;;;;-144.07;100.00;58028.97;4839872;29;20034;-75
2022/06/08 03:40:22;;;;;;;7.95;5.10;;;;;;;-144.07;100.00;58028.97;4839834;29;20529;-76
2022/06/08 03:42:48;;;;;;;7.55;4.97;;;;;;;-144.07;100.00;58028.97;4840140;29;20102;-76
2022/06/08 03:45:14;;;;;;;7.63;3.13;;;;;;;-144.07;100.00;58028.97;4824796;29;20045;-74
2022/06/08 03:47:46;;;;;;;7.38;2.97;;;;;;;-144.07;100.00;58028.97;4836805;29;20046;-74
2022/06/08 03:50:15;;;;;;;10.13;3.15;;;;;;;-144.07;100.00;58028.97;4837896;29;20042;-75
2022/06/08 03:52:47;;;;;;;5.57;2.72;;;;;;;-144.07;100.00;58028.97;4840955;29;20054;-74
2022/06/08 03:55:13;;;;;;;4.13;2.35;;;;;;;-144.07;100.00;58028.97;4839939;29;20041;-75
2022/06/08 03:57:39;;;;;;;8.98;2.90;;;;;;;-144.07;100.00;58028.97;4824758;29;20090;-75
2022/06/08 04:00:06;;;;;;;5.00;2.80;;;;;;;-144.07;100.00;58028.97;4824984;29;20052;-74
2022/06/08 04:02:43;;;;;;;4.38;3.08;;;;;;;-144.07;100.00;58028.97;4841318;29;20042;-74
2022/06/08 04:05:09;;;;;;;6.00;3.00;;;;;;;-144.07;100.00;58028.97;4822525;29;20058;-75
2022/06/08 04:07:36;;;;;;;9.77;3.03;;;;;;;-144.07;100.00;58028.97;4859364;29;20054;-75
2022/06/08 04:10:03;;;;;;;7.15;2.70;;;;;;;-144.07;100.00;58028.97;4828465;29;20615;-76
2022/06/08 04:12:31;;;;;;;7.78;3.20;;;;;;;-144.07;100.00;58028.97;4815810;29;20038;-77
2022/06/08 04:14:58;;;;;;;7.00;2.72;;;;;;;-144.07;100.00;58028.97;4858887;29;20053;-73
2022/06/08 04:17:24;;;;;;;6.95;2.97;;;;;;;-144.07;100.00;58028.97;4810108;29;20038;-74
2022/06/08 04:19:50;;;;;;;6.63;2.95;;;;;;;-144.07;100.00;58028.97;4816220;29;20041;-73
2022/06/08 04:22:17;;;;;;;12.70;3.42;;;;;;;-144.07;100.00;58028.97;4828357;29;20038;-74
2022/06/08 04:24:43;;;;;;;6.32;2.40;;;;;;;-144.07;100.00;58028.97;4821660;29;20838;-73
2022/06/08 04:27:11;;;;;;;6.75;2.50;;;;;;;-144.07;100.00;58028.97;4843646;29;20044;-74
2022/06/08 04:29:41;;;;;;;8.60;2.47;;;;;;;-144.07;100.00;58028.97;4838162;29;20418;-74
2022/06/08 04:32:09;;;;;;;11.45;2.95;;;;;;;-144.07;100.00;58028.97;4843422;29;20046;-74
2022/06/08 04:34:37;;;;;;;6.50;2.10;;;;;;;-144.07;100.00;58028.97;4817490;29;20079;-74
2022/06/08 04:37:03;;;;;;;4.85;2.20;;;;;;;-144.07;100.00;58028.97;4843001;29;20553;-73
2022/06/08 04:39:55;;;;;;;7.68;2.60;;;;;;;-144.07;100.00;58028.97;4847021;29;20081;-74
2022/06/08 04:42:22;;;;;;;7.72;2.53;;;;;;;-144.07;100.00;58028.97;4843202;29;20506;-74
2022/06/08 04:44:47;;;;;;;4.15;2.03;;;;;;;-144.07;100.00;58028.97;4843082;29;20038;-73
2022/06/08 04:47:18;;;;;;;3.92;2.03;;;;;;;-144.07;100.00;58028.97;4825314;29;20078;-74
2022/06/08 04:49:45;;;;;;;8.10;2.20;;;;;;;-144.07;100.00;58028.97;4850400;29;20046;-74
2022/06/08 04:52:12;;;;;;;5.53;1.63;;;;;;;-144.07;100.00;58028.97;4828167;29;20120;-74
2022/06/08 04:54:38;;;;;;;6.03;1.75;;;;;;;-144.07;100.00;58028.97;4827821;29;20114;-74
2022/06/08 04:57:04;;;;;;;5.40;1.80;;;;;;;-144.07;100.00;58028.97;4827668;29;20038;-74
2022/06/08 04:59:30;;;;;;;3.25;1.80;;;;;;;-144.07;100.00;58028.97;4827593;29;20137;-74
2022/06/08 05:02:05;;;;;;;5.47;1.58;;;;;;;-144.07;100.00;58028.97;4815344;29;20501;-75
2022/06/08 05:04:31;;;;;;;8.52;2.30;;;;;;;-144.07;100.00;58028.97;4827471;29;20050;-75
2022/06/08 05:06:57;;;;;;;4.88;2.00;;;;;;;-144.07;100.00;58028.97;4812652;29;20050;-75
2022/06/08 05:09:26;;;;;;;10.65;2.08;;;;;;;-144.07;100.00;58028.97;4828096;29;20038;-75
2022/06/08 05:11:52;;;;;;;7.75;1.73;;;;;;;-144.07;100.00;58028.97;4828221;29;20201;-75
2022/06/08 05:14:20;;;;;;;6.95;1.70;;;;;;;-144.07;100.00;58028.97;4843939;29;20058;-75
2022/06/08 05:16:47;;;;;;;5.82;2.03;;;;;;;-144.07;100.00;58028.97;4825207;29;20456;-76
2022/06/08 05:19:13;;;;;;;7.82;1.75;;;;;;;-144.07;100.00;58028.97;4824769;29;20065;-77
2022/06/08 05:21:40;;;;;;;11.43;1.88;;;;;;;-144.07;100.00;58028.97;4814100;29;20058;-78
2022/06/08 05:24:11;;;;;;;5.95;1.48;;;;;;;-144.07;100.00;58028.97;4828268;29;20418;-74
2022/06/08 05:26:44;;;;;;;7.82;2.00;;;;;;;-144.07;100.00;58028.97;4828428;29;20125;-74
2022/06/08 05:29:11;;;;;;;8.85;2.20;;;;;;;-144.07;100.00;58028.97;4817885;29;20045;-75
2022/06/08 05:31:37;;;;;;;5.90;1.80;;;;;;;-144.07;100.00;58028.97;4812358;29;20124;-74
2022/06/08 05:34:03;;;;;;;6.45;1.80;;;;;;;-144.07;100.00;58028.97;4842767;29;20136;-75
2022/06/08 05:36:30;;;;;;;6.28;1.90;;;;;;;-144.07;100.00;58028.97;4842596;29;20025;-74
2022/06/08 05:38:59;;;;;;;6.07;2.00;;;;;;;-144.07;100.00;58028.97;4842145;29;20048;-74
2022/06/08 05:41:30;;;;;;;5.35;1.52;;;;;;;-144.07;100.00;58028.97;4813640;29;20412;-77
2022/06/08 05:43:56;;;;;;;7.55;1.70;;;;;;;-144.07;100.00;58028.97;4826945;29;20042;-75
2022/06/08 05:46:22;;;;;;;4.60;1.65;;;;;;;-144.07;100.00;58028.97;4841611;29;20053;-73
2022/06/08 05:48:53;;;;;;;4.72;1.55;;;;;;;-144.07;100.00;58028.97;4818278;29;20042;-74
2022/06/08 05:51:19;;;;;;;7.15;1.58;;;;;;;-144.07;100.00;58028.97;4816282;29;20052;-74
2022/06/08 05:53:45;;;;;;;7.43;1.77;;;;;;;-144.07;100.00;58028.97;4835206;29;20517;-75
2022/06/08 05:56:11;;;;;;;7.22;2.20;;;;;;;-144.07;100.00;58028.97;4841775;29;20087;-74
2022/06/08 05:58:41;;;;;;;8.45;2.03;;;;;;;-144.07;100.00;58028.97;4841655;29;20034;-74
2022/06/08 06:01:07;;;;;;;4.50;1.85;;;;;;;-144.07;100.00;58028.97;4841887;29;20062;-75
2022/06/08 06:03:32;;;;;;;7.70;2.00;;;;;;;-144.07;100.00;58028.97;4843011;29;20045;-74
2022/06/08 06:05:59;;;;;;;4.90;1.95;;;;;;;-144.07;100.00;58028.97;4841777;29;20498;-74
2022/06/08 06:08:25;;;;;;;11.65;2.22;;;;;;;-144.07;100.00;58028.97;4826883;29;20034;-75
2022/06/08 06:10:57;;;;;;;6.60;1.98;;;;;;;-144.07;100.00;58028.97;4813703;29;20046;-73
2022/06/08 06:13:34;;;;;;;;;;;;;;;-144.07;100.00;58028.97;4828194;29;20049;-73
2022/06/08 06:16:01;;;;;;;5.80;2.08;;;;;;;-144.07;100.00;58028.97;4857305;29;20389;-76
2022/06/08 06:18:28;;;;;;;5.97;1.90;;;;;;;-144.07;100.00;58028.97;4841860;29;20112;-74
2022/06/08 06:21:26;;;;;;;3.90;1.95;;;;;;;-144.07;100.00;58028.97;4822326;29;20045;-73
2022/06/08 06:24:15;;;;;;;7.03;2.22;;;;;;;-144.07;100.00;58028.97;4841100;29;20136;-73
2022/06/08 06:26:47;;;;;;;5.85;2.10;;;;;;;-144.07;100.00;58028.97;4829543;29;20050;-73
2022/06/08 06:29:15;;;;;;;4.05;2.15;;;;;;;-144.07;100.00;58028.97;4826332;29;20494;-76
2022/06/08 06:32:05;;;;;;;12.20;2.63;;;;;;;-144.07;100.00;58028.97;4816981;29;20057;-74
2022/06/08 06:34:41;;;;;;;11.13;2.55;;;;;;;-144.07;100.00;58028.97;4815383;29;20042;-74
2022/06/08 06:37:07;;;;;;;9.63;2.20;;;;;;;-144.07;100.00;58028.97;4841092;29;20073;-74
2022/06/08 06:39:33;;;;;;;7.00;2.13;;;;;;;-144.07;100.00;58028.97;4819659;29;20034;-74
2022/06/08 06:42:04;;;;;;;13.68;2.15;;;;;;;-144.07;100.00;58028.97;4855822;29;20038;-74
2022/06/08 06:44:36;;;;;;;13.95;2.20;;;;;;;-144.07;100.00;58028.97;4841152;29;20038;-75
2022/06/08 06:47:11;;;;;;;7.05;1.92;;;;;;;-144.07;100.00;58028.97;4827500;29;20052;-76
2022/06/08 06:50:05;;;;;;;4.60;2.00;;;;;;;-144.07;100.00;58028.97;4842476;29;20141;-73
2022/06/08 06:52:32;;;;;;;8.35;2.28;;;;;;;-144.07;100.00;58028.97;4826262;29;20479;-75
2022/06/08 06:55:04;;;;;;;6.78;2.17;;;;;;;-144.07;100.00;58028.97;4830380;29;20038;-77
2022/06/08 06:57:30;;;;;;;9.20;2.33;;;;;;;-144.07;100.00;58028.97;4824423;29;20459;-73
2022/06/08 06:59:55;;;;;;;12.20;2.13;;;;;;;-144.07;100.00;58028.97;4814126;29;20030;-74
2022/06/08 07:02:21;;;;;;;4.97;1.70;;;;;;;-144.07;100.00;58028.97;4825489;29;20486;-75
2022/06/08 07:04:49;;;;;;;13.15;2.08;;;;;;;-144.07;100.00;58028.97;4828833;29;20045;-75
2022/06/08 07:07:16;;;;;;;6.38;2.05;;;;;;;-144.07;100.00;58028.97;4840709;29;20397;-75
2022/06/08 07:09:43;;;;;;;6.43;1.90;;;;;;;-144.07;100.00;58028.97;4840534;29;20048;-75
2022/06/08 07:12:12;;;;;;;6.97;2.10;;;;;;;-144.07;100.00;58028.97;4810345;29;20050;-73
2022/06/08 07:14:43;;;;;;;6.88;2.00;;;;;;;-144.07;100.00;58028.97;4833420;29;20034;-75
2022/06/08 07:17:15;;;;;;;11.00;2.10;;;;;;;-144.07;100.00;58028.97;4840276;29;20502;-74
2022/06/08 07:19:42;;;;;;;5.57;2.00;;;;;;;-144.07;100.00;58028.97;4839704;29;20050;-75
2022/06/08 07:22:10;;;;;;;6.30;1.95;;;;;;;-144.07;100.00;58028.97;4833010;29;20048;-74
2022/06/08 07:24:35;;;;;;;7.03;1.85;;;;;;;-144.07;100.00;58028.97;4840302;29;20129;-75
2022/06/08 07:27:02;;;;;;;6.38;1.90;;;;;;;-144.07;100.00;58028.97;4855900;29;20368;-74
2022/06/08 07:29:28;;;;;;;5.32;2.20;;;;;;;-144.07;100.00;58028.97;4825650;29;20054;-75
2022/06/08 07:31:53;;;;;;;7.93;1.77;;;;;;;-144.07;100.00;58028.97;4841711;29;20042;-74
2022/06/08 07:34:19;;;;;;;4.75;1.90;;;;;;;-144.07;100.00;58028.97;4841581;29;20628;-74
2022/06/08 07:36:45;;;;;;;5.32;1.85;;;;;;;-144.07;100.00;58028.97;4825415;29;20498;-76
2022/06/08 07:39:12;;;;;;;7.32;2.05;;;;;;;-144.07;100.00;58028.97;4819432;29;20074;-74
2022/06/08 07:41:38;;;;;;;10.30;1.90;;;;;;;-144.07;100.00;58028.97;4850059;29;20386;-75
2022/06/08 07:44:04;;;;;;;5.72;1.60;;;;;;;-144.07;100.00;58028.97;4845099;29;20053;-75
2022/06/08 07:46:29;;;;;;;4.20;1.60;;;;;;;-144.07;100.00;58028.97;4844070;29;20034;-74
2022/06/08 07:51:40;;;;;;;3.95;1.70;;;;;;;-144.07;100.00;58028.97;4835274;29;20120;-74
2022/06/08 07:54:05;;;;;;;3.20;1.70;;;;;;;-144.07;100.00;58028.97;4828840;29;20121;-74
2022/06/08 07:56:31;;;;;;;4.97;1.50;;;;;;;-144.07;100.00;58028.97;4845554;29;20074;-72
2022/06/08 07:58:57;;;;;;;6.13;1.60;;;;;;;-144.07;100.00;58028.97;4844120;29;20060;-73
2022/06/08 08:01:23;;;;;;;3.28;1.50;;;;;;;-144.07;100.00;58028.97;4845102;29;20096;-75
2022/06/08 08:03:48;;;;;;;6.10;1.55;;;;;;;-144.07;100.00;58028.97;4843558;29;20044;-75
2022/06/08 08:06:14;;;;;;;3.75;1.52;;;;;;;-144.07;100.00;58028.97;4844060;29;20081;-74
2022/06/08 08:08:40;;;;;;;4.88;1.90;;;;;;;-144.07;100.00;58028.97;4846921;29;20038;-75
2022/06/08 08:11:06;;;;;;;3.08;1.33;;;;;;;-144.07;100.00;58028.97;4821595;29;20054;-76
2022/06/08 08:13:32;;;;;;;5.53;1.40;;;;;;;-144.07;100.00;58028.97;4815856;29;20054;-80
2022/06/08 08:15:58;;;;;;;3.33;1.38;;;;;;;-144.07;100.00;58028.97;4816426;29;20042;-82
2022/06/08 08:18:23;;;;;;;4.22;1.23;;;;;;;-144.07;100.00;58028.97;4862078;29;20117;-80
2022/06/08 08:20:49;;;;;;;4.30;1.27;;;;;;;-144.07;100.00;58028.97;4846977;29;20098;-80
2022/06/08 08:23:15;;;;;;;5.00;1.40;;;;;;;-144.07;100.00;58028.97;4831222;29;20097;-81
2022/06/08 08:25:41;;;;;;;2.42;1.30;;;;;;;-144.07;100.00;58028.97;4833259;29;20046;-81
2022/06/08 08:28:07;;;;;;;3.97;1.23;;;;;;;-144.07;100.00;58028.97;4830840;29;20034;-81
2022/06/08 08:30:33;;;;;;;5.93;1.50;;;;;;;-144.07;100.00;58028.97;4833221;29;20102;-80
2022/06/08 08:32:59;;;;;;;5.50;1.42;;;;;;;-144.07;100.00;58028.97;4831125;29;20117;-80
2022/06/08 08:35:25;;;;;;;3.38;1.60;;;;;;;-144.07;100.00;58028.97;4826288;29;20045;-83
2022/06/08 08:37:51;;;;;;;3.80;1.88;;;;;;;-144.07;100.00;58028.97;4816364;29;20042;-81
2022/06/08 08:40:23;;;;;;;1.98;1.20;;;;;;;-144.07;100.00;58028.97;4830823;29;20061;-79
2022/06/08 08:42:48;;;;;;;5.38;1.40;;;;;;;-144.07;100.00;58028.97;4843537;29;20050;-82
2022/06/08 08:45:14;;;;;;;4.53;1.50;;;;;;;-144.07;100.00;58028.97;4861569;29;20034;-80
2022/06/08 08:47:49;;;;;;;3.83;1.25;;;;;;;-144.07;100.00;58028.97;4830524;29;20128;-80
2022/06/08 08:50:24;;;;;;;6.63;1.40;;;;;;;-144.07;100.00;58028.97;4846086;29;20046;-81
2022/06/08 08:53:04;;;;;;;1.87;1.30;;;;;;;-144.07;100.00;58028.97;4831741;29;20049;-82
2022/06/08 08:55:46;;;;;;;5.32;1.50;;;;;;;-144.07;100.00;58028.97;4848075;29;20038;-80
2022/06/08 08:58:28;;;;;;;3.40;1.20;;;;;;;-144.07;100.00;58028.97;4831448;29;20050;-81
2022/06/08 09:01:31;;;;;;;3.13;1.40;;;;;;;-144.07;100.00;58028.97;4852579;29;20442;-83
2022/06/08 09:04:04;;;;;;;2.92;1.40;;;;;;;-144.07;100.00;58028.97;4847019;29;20430;-84
2022/06/08 09:06:32;;;;;;;4.20;1.40;;;;;;;-144.07;100.00;58028.97;4860372;29;20093;-81
2022/06/08 09:09:02;;;;;;;3.08;1.30;;;;;;;-144.07;100.00;58028.97;4847372;29;20030;-80
2022/06/08 09:11:36;;;;;;;4.30;1.40;;;;;;;-144.07;100.00;58028.97;4844788;29;20050;-81
2022/06/08 09:14:19;;;;;;;5.47;1.50;;;;;;;-144.07;100.00;58028.97;4830979;29;20495;-80
2022/06/08 09:16:47;;;;;;;2.58;1.30;;;;;;;-144.07;100.00;58028.97;4842474;29;20490;-81
2022/06/08 09:19:23;;;;;;;2.70;1.00;;;;;;;-144.07;100.00;58028.97;4830436;29;20054;-80
2022/06/08 09:21:50;;;;;;;3.55;1.10;;;;;;;-144.07;100.00;58028.97;4846227;29;20046;-79
2022/06/08 09:24:32;;;;;;;4.28;1.20;;;;;;;-144.07;100.00;58028.97;4814838;29;20038;-83
2022/06/08 09:27:35;;;;;;;2.08;0.90;;;;;;;-144.07;100.00;58028.97;4841440;29;20422;-82
2022/06/08 09:30:00;;;;;;;2.05;1.17;;;;;;;-144.07;100.00;58028.97;4847275;29;20052;-80
2022/06/08 09:32:33;;;;;;;3.05;1.20;;;;;;;-144.07;100.00;58028.97;4829535;29;20382;-82
2022/06/08 09:35:15;;;;;;;2.42;1.10;;;;;;;-144.07;100.00;58028.97;4843885;29;20049;-80
2022/06/08 09:37:41;;;;;;;4.40;1.30;;;;;;;-144.07;100.00;58028.97;4830150;29;20478;-81
2022/06/08 09:40:36;;;;;;;1.73;1.08;;;;;;;-144.07;100.00;58028.97;4819673;29;20091;-82
2022/06/08 09:43:04;;;;;;;3.78;1.30;;;;;;;-144.07;100.00;58028.97;4835867;29;20053;-82
2022/06/08 09:45:53;;;;;;;2.60;1.20;;;;;;;-144.07;100.00;58028.97;4851742;29;20131;-81
2022/06/08 09:51:40;;;;;;;2.53;1.25;;;;;;;-144.07;100.00;58028.97;4855027;29;20050;-80
2022/06/08 09:54:22;;;;;;;1.83;1.10;;;;;;;-144.07;100.00;58028.97;4836813;29;20044;-81
2022/06/08 09:57:02;;;;;;;2.33;1.20;;;;;;;-144.07;100.00;58028.97;4852253;29;20050;-82
2022/06/08 09:59:55;;;;;;;4.78;1.10;;;;;;;-144.07;100.00;58028.97;4846499;29;20077;-81
2022/06/08 10:02:46;;;;;;;2.88;1.20;;;;;;;-144.07;100.00;58028.97;4856855;29;20402;-82
2022/06/08 10:05:16;;;;;;;2.72;1.10;;;;;;;-144.07;100.00;58028.97;4855655;29;20053;-80
2022/06/08 10:07:51;;;;;;;1.83;0.95;;;;;;;-144.07;100.00;58028.97;4860800;29;20045;-79
2022/06/08 10:10:35;;;;;;;1.50;1.00;;;;;;;-144.07;100.00;58028.97;4839866;29;20046;-80
2022/06/08 10:13:05;;;;;;;1.58;1.00;;;;;;;-144.07;100.00;58028.97;4833461;29;20050;-81
2022/06/08 10:15:34;;;;;;;2.95;1.00;;;;;;;-144.07;100.00;58028.97;4844577;29;20042;-82
2022/06/08 10:18:01;;;;;;;4.82;1.13;;;;;;;-144.07;100.00;58028.97;4844092;29;20061;-82
2022/06/08 10:20:34;;;;;;;2.83;0.98;;;;;;;-144.07;100.00;58028.97;4846076;29;20084;-81
2022/06/08 10:23:05;;;;;;;1.88;1.10;;;;;;;-144.07;100.00;58028.97;4816879;29;20184;-80
2022/06/08 10:25:52;;;;;;;1.75;0.90;;;;;;;-144.07;100.00;58028.97;4844077;29;20046;-79
2022/06/08 10:28:38;;;;;;;1.85;1.00;;;;;;;-144.07;100.00;58028.97;4823996;29;20049;-80
2022/06/08 10:31:26;;;;;;;3.08;1.10;;;;;;;-144.07;100.00;58028.97;4828836;29;20046;-82
2022/06/08 10:34:03;;;;;;;3.70;1.35;;;;;;;-144.07;100.00;58028.97;4853861;29;20071;-82
2022/06/08 10:36:32;;;;;;;3.67;1.13;;;;;;;-144.07;100.00;58028.97;4830107;29;20041;-80
2022/06/08 10:39:00;;;;;;;2.17;1.00;;;;;;;-144.07;100.00;58028.97;4835309;29;20490;-80
2022/06/08 10:44:33;;;;;;;2.40;1.08;;;;;;;-144.07;100.00;58028.97;4823113;29;20044;-79
2022/06/08 10:47:16;;;;;;;3.10;1.33;;;;;;;-144.07;100.00;58028.97;4829360;29;20132;-81
2022/06/08 10:49:47;;;;;;;5.55;1.50;;;;;;;-144.07;100.00;58028.97;4843946;29;20045;-81
2022/06/08 10:52:19;;;;;;;5.05;1.83;;;;;;;-144.07;100.00;58028.97;4833267;29;20046;-79
2022/06/08 10:54:55;;;;;;;7.30;2.80;;;;;;;-144.07;100.00;58028.97;4858944;29;20098;-80
2022/06/08 10:57:29;;;;;;;14.75;5.15;;;;;;;-144.07;100.00;58028.97;4818490;29;20042;-79
2022/06/08 11:00:20;;;;;;;22.02;6.90;;;;;;;-144.07;100.00;58028.97;4843935;29;20081;-80
2022/06/08 11:03:03;;;;;;;24.73;6.85;;;;;;;-144.07;100.00;58028.97;4848419;29;20494;-78
2022/06/08 11:05:35;;;;;;;21.92;5.43;;;;;;;-144.07;100.00;58028.97;4856948;29;20068;-78
2022/06/08 11:08:01;;;;;;;13.95;4.70;;;;;;;-144.07;100.00;58028.97;4843114;29;20098;-79
2022/06/08 11:10:47;;;;;;;15.50;5.10;;;;;;;-144.07;100.00;58028.97;4856890;29;20383;-80
2022/06/08 11:13:22;;;;;;;6.30;2.25;;;;;;;-144.07;100.00;58028.97;4841962;29;20494;-78
2022/06/08 11:15:56;;;;;;;11.75;4.72;;;;;;;-144.07;100.00;58028.97;4826804;29;20036;-81
2022/06/08 11:18:41;;;;;;;4.68;1.73;;;;;;;-144.07;100.00;58028.97;4846653;29;20062;-83
2022/06/08 11:21:12;;;;;;;11.27;3.50;;;;;;;-144.07;100.00;58028.97;4829904;29;20042;-84
2022/06/08 11:23:47;;;;;;;6.50;2.95;;;;;;;-144.07;100.00;58028.97;4844620;29;20053;-76
2022/06/08 11:26:23;;;;;;;5.93;2.30;;;;;;;-144.07;100.00;58028.97;4834645;29;20066;-78
2022/06/08 11:28:52;;;;;;;6.25;2.00;;;;;;;-144.07;100.00;58028.97;4853162;29;20049;-75
2022/06/08 11:31:27;;;;;;;5.43;2.33;;;;;;;-144.07;100.00;58028.97;4842420;29;20038;-79
2022/06/08 11:34:04;;;;;;;6.82;2.20;;;;;;;-144.07;100.00;58028.97;4841258;29;20506;-75
2022/06/08 11:36:40;;;;;;;6.15;2.42;;;;;;;-144.07;100.00;58028.97;4833029;29;20406;-76
2022/06/08 11:39:26;;;;;;;6.07;1.60;;;;;;;-144.07;100.00;58028.97;4840606;29;20046;-75
2022/06/08 11:42:19;;;;;;;5.43;1.45;;;;;;;-144.07;100.00;58028.97;4825181;29;20351;-74